Time;durP1;ratioP1;P1;durP2;ratioP2;P2;SDS_P1;SDS_P2;PMS_P1;PMS_P2;Temp;Humidity;BMP_temperature;BMP_pressure;BME280_temperature;BME280_humidity;BME280_pressure;Samples;Min_cycle;Max_cycle;Signal;HPM_P1;HPM_P2
2024/03/22 00:00:03;;;;;;;26.55;14.65;;;;;;;;;;692391;28;4678;-64
2024/03/22 00:00:32;;;;;;;25.58;15.30;;;;;;;;;;691737;28;1864;-64
2024/03/22 00:00:52;;;;;;;25.67;15.30;;;;;;;;;;692291;28;4495;-64
2024/03/22 00:01:13;;;;;;;26.67;15.40;;;;;;;;;;694558;28;853;-64
2024/03/22 00:01:33;;;;;;;26.87;15.27;;;;;;;;;;694819;28;1856;-64
2024/03/22 00:01:54;;;;;;;26.58;15.80;;;;;;;;;;693937;28;955;-65
2024/03/22 00:02:14;;;;;;;26.38;15.63;;;;;;;;;;694061;28;912;-64
2024/03/22 00:02:34;;;;;;;25.80;15.60;;;;;;;;;;694355;28;2563;-63
2024/03/22 00:02:55;;;;;;;28.07;15.60;;;;;;;;;;695689;28;1286;-64
2024/03/22 00:03:15;;;;;;;26.40;15.07;;;;;;;;;;694109;28;829;-65
2024/03/22 00:03:35;;;;;;;25.23;15.17;;;;;;;;;;692577;28;2094;-65
2024/03/22 00:03:55;;;;;;;26.00;15.63;;;;;;;;;;695104;28;4340;-64
2024/03/22 00:04:16;;;;;;;27.23;15.73;;;;;;;;;;693752;28;1272;-64
2024/03/22 00:04:36;;;;;;;25.20;14.73;;;;;;;;;;694331;28;1963;-64
2024/03/22 00:04:57;;;;;;;24.43;14.30;;;;;;;;;;694490;28;1101;-64
2024/03/22 00:05:17;;;;;;;24.30;14.63;;;;;;;;;;694912;28;796;-66
2024/03/22 00:05:37;;;;;;;24.93;14.90;;;;;;;;;;694252;28;1949;-64
2024/03/22 00:05:58;;;;;;;24.93;14.87;;;;;;;;;;694562;28;1158;-64
2024/03/22 00:06:18;;;;;;;24.50;15.00;;;;;;;;;;693562;28;1314;-63
2024/03/22 00:06:39;;;;;;;25.33;14.90;;;;;;;;;;694099;28;1798;-64
2024/03/22 00:06:59;;;;;;;26.95;14.93;;;;;;;;;;697270;28;4472;-64
2024/03/22 00:07:19;;;;;;;27.57;15.97;;;;;;;;;;693982;28;794;-65
2024/03/22 00:07:39;;;;;;;26.17;15.43;;;;;;;;;;693637;28;2278;-65
2024/03/22 00:08:00;;;;;;;25.00;14.90;;;;;;;;;;693961;28;923;-64
2024/03/22 00:08:20;;;;;;;24.10;15.27;;;;;;;;;;692711;28;1367;-65
2024/03/22 00:08:40;;;;;;;24.33;14.93;;;;;;;;;;692614;28;914;-64
2024/03/22 00:09:00;;;;;;;24.80;15.15;;;;;;;;;;694508;28;1082;-64
2024/03/22 00:09:21;;;;;;;25.97;15.37;;;;;;;;;;695298;28;1146;-64
2024/03/22 00:09:41;;;;;;;25.57;15.43;;;;;;;;;;692769;28;2326;-64
2024/03/22 00:10:01;;;;;;;25.20;15.03;;;;;;;;;;694024;28;4301;-64
2024/03/22 00:10:21;;;;;;;25.33;14.45;;;;;;;;;;695041;28;852;-64
2024/03/22 00:10:41;;;;;;;25.63;14.67;;;;;;;;;;693031;28;2512;-65
2024/03/22 00:11:02;;;;;;;25.10;14.57;;;;;;;;;;694888;28;1223;-64
2024/03/22 00:11:22;;;;;;;24.23;14.52;;;;;;;;;;694680;28;1015;-64
2024/03/22 00:11:43;;;;;;;26.30;15.10;;;;;;;;;;694301;28;1659;-64
2024/03/22 00:12:04;;;;;;;25.10;15.30;;;;;;;;;;695271;28;939;-64
2024/03/22 00:12:25;;;;;;;24.90;14.27;;;;;;;;;;693090;28;999;-66
2024/03/22 00:12:45;;;;;;;22.95;14.32;;;;;;;;;;693402;28;1824;-63
2024/03/22 00:13:05;;;;;;;24.40;15.07;;;;;;;;;;694904;28;4511;-65
2024/03/22 00:13:25;;;;;;;27.20;15.37;;;;;;;;;;694996;28;1958;-64
2024/03/22 00:13:46;;;;;;;27.77;15.52;;;;;;;;;;694151;28;1750;-64
2024/03/22 00:14:06;;;;;;;26.93;14.97;;;;;;;;;;694163;28;952;-64
2024/03/22 00:14:27;;;;;;;26.50;14.80;;;;;;;;;;694564;28;1025;-64
2024/03/22 00:14:47;;;;;;;26.20;15.20;;;;;;;;;;693353;28;2125;-64
2024/03/22 00:15:07;;;;;;;25.03;15.03;;;;;;;;;;695581;28;997;-65
2024/03/22 00:15:28;;;;;;;25.73;14.93;;;;;;;;;;693431;28;931;-65
2024/03/22 00:15:48;;;;;;;25.87;15.30;;;;;;;;;;694212;28;4387;-65
2024/03/22 00:16:08;;;;;;;24.43;14.93;;;;;;;;;;693683;28;1459;-64
2024/03/22 00:16:29;;;;;;;25.73;14.85;;;;;;;;;;693786;28;2355;-63
2024/03/22 00:16:49;;;;;;;26.97;15.60;;;;;;;;;;694896;28;927;-64
2024/03/22 00:17:09;;;;;;;26.20;15.43;;;;;;;;;;695145;28;1240;-64
2024/03/22 00:17:30;;;;;;;25.42;15.55;;;;;;;;;;693975;28;1709;-65
2024/03/22 00:17:50;;;;;;;25.27;15.18;;;;;;;;;;695066;28;1302;-64
2024/03/22 00:18:11;;;;;;;25.47;15.07;;;;;;;;;;695572;28;781;-64
2024/03/22 00:18:31;;;;;;;26.73;15.02;;;;;;;;;;693541;28;2292;-63
2024/03/22 00:18:51;;;;;;;26.30;14.90;;;;;;;;;;694501;28;4474;-65
2024/03/22 00:19:12;;;;;;;25.83;14.73;;;;;;;;;;693907;28;790;-63
2024/03/22 00:19:32;;;;;;;25.42;15.40;;;;;;;;;;693736;28;1878;-65
2024/03/22 00:19:52;;;;;;;27.33;15.50;;;;;;;;;;694126;28;908;-64
2024/03/22 00:20:12;;;;;;;26.10;15.50;;;;;;;;;;694188;28;836;-64
2024/03/22 00:20:33;;;;;;;25.30;15.53;;;;;;;;;;693508;28;1697;-63
2024/03/22 00:20:53;;;;;;;24.83;15.77;;;;;;;;;;694795;28;1340;-63
2024/03/22 00:21:13;;;;;;;24.37;15.27;;;;;;;;;;694354;28;1236;-64
2024/03/22 00:21:33;;;;;;;24.60;14.77;;;;;;;;;;693897;28;1827;-64
2024/03/22 00:21:53;;;;;;;24.80;14.63;;;;;;;;;;693746;28;4335;-64
2024/03/22 00:22:15;;;;;;;25.50;14.93;;;;;;;;;;695795;28;795;-64
2024/03/22 00:22:35;;;;;;;24.33;15.05;;;;;;;;;;693282;28;1720;-64
2024/03/22 00:22:55;;;;;;;25.77;15.10;;;;;;;;;;694517;28;951;-65
2024/03/22 00:23:16;;;;;;;26.65;15.20;;;;;;;;;;695259;28;1228;-64
2024/03/22 00:23:36;;;;;;;25.87;14.90;;;;;;;;;;694696;28;1827;-64
2024/03/22 00:23:56;;;;;;;27.03;15.67;;;;;;;;;;693965;28;1180;-66
2024/03/22 00:24:17;;;;;;;26.55;15.10;;;;;;;;;;694837;28;1191;-64
2024/03/22 00:24:37;;;;;;;25.97;14.97;;;;;;;;;;692564;28;1730;-64
2024/03/22 00:24:57;;;;;;;24.53;15.17;;;;;;;;;;693210;28;4519;-64
2024/03/22 00:25:17;;;;;;;27.03;15.70;;;;;;;;;;693910;28;761;-64
2024/03/22 00:25:38;;;;;;;25.67;15.33;;;;;;;;;;694203;28;947;-65
2024/03/22 00:25:58;;;;;;;26.63;15.18;;;;;;;;;;694165;28;836;-64
2024/03/22 00:26:18;;;;;;;26.60;15.03;;;;;;;;;;694490;28;1412;-64
2024/03/22 00:26:39;;;;;;;23.87;14.80;;;;;;;;;;693367;28;1740;-64
2024/03/22 00:26:59;;;;;;;24.23;14.60;;;;;;;;;;694415;28;939;-64
2024/03/22 00:27:19;;;;;;;25.90;15.47;;;;;;;;;;694016;28;845;-64
2024/03/22 00:27:39;;;;;;;26.07;14.93;;;;;;;;;;693506;28;1124;-64
2024/03/22 00:28:00;;;;;;;23.93;14.13;;;;;;;;;;693303;28;4469;-64
2024/03/22 00:28:20;;;;;;;24.83;14.83;;;;;;;;;;695184;28;1040;-65
2024/03/22 00:28:40;;;;;;;24.37;14.67;;;;;;;;;;693882;28;1089;-64
2024/03/22 00:29:01;;;;;;;23.90;14.53;;;;;;;;;;693600;28;943;-64
2024/03/22 00:29:21;;;;;;;25.08;14.60;;;;;;;;;;695532;28;940;-65
2024/03/22 00:29:41;;;;;;;23.60;14.43;;;;;;;;;;694108;28;968;-64
2024/03/22 00:30:01;;;;;;;23.80;14.53;;;;;;;;;;694046;28;1405;-64
2024/03/22 00:30:22;;;;;;;24.23;14.40;;;;;;;;;;693907;28;998;-64
2024/03/22 00:30:42;;;;;;;25.33;14.90;;;;;;;;;;694183;28;1177;-64
2024/03/22 00:31:02;;;;;;;24.87;15.10;;;;;;;;;;695287;28;4519;-64
2024/03/22 00:31:22;;;;;;;23.83;14.83;;;;;;;;;;694289;28;1075;-65
2024/03/22 00:31:42;;;;;;;22.67;14.03;;;;;;;;;;694514;28;1081;-65
2024/03/22 00:32:03;;;;;;;24.87;14.57;;;;;;;;;;694107;28;813;-64
2024/03/22 00:32:23;;;;;;;24.45;14.27;;;;;;;;;;693399;28;840;-64
2024/03/22 00:32:44;;;;;;;25.57;14.80;;;;;;;;;;693735;28;1125;-64
2024/03/22 00:33:04;;;;;;;26.05;14.63;;;;;;;;;;693958;28;1262;-64
2024/03/22 00:33:24;;;;;;;25.70;13.80;;;;;;;;;;693791;28;1954;-64
2024/03/22 00:33:45;;;;;;;26.13;14.07;;;;;;;;;;693721;28;926;-64
2024/03/22 00:34:05;;;;;;;27.10;14.77;;;;;;;;;;694229;28;4285;-64
2024/03/22 00:34:26;;;;;;;26.63;15.00;;;;;;;;;;694567;28;931;-66
2024/03/22 00:34:46;;;;;;;24.67;14.95;;;;;;;;;;694197;28;1119;-65
2024/03/22 00:35:06;;;;;;;24.47;14.90;;;;;;;;;;695310;28;924;-63
2024/03/22 00:35:26;;;;;;;23.10;14.80;;;;;;;;;;694835;28;807;-65
2024/03/22 00:35:47;;;;;;;23.60;14.60;;;;;;;;;;693580;28;1158;-65
2024/03/22 00:36:08;;;;;;;24.13;14.53;;;;;;;;;;689632;28;1037;-64
2024/03/22 00:36:28;;;;;;;24.98;14.75;;;;;;;;;;689143;28;1078;-64
2024/03/22 00:36:49;;;;;;;26.37;14.93;;;;;;;;;;688440;28;4494;-64
2024/03/22 00:37:09;;;;;;;24.23;14.85;;;;;;;;;;690096;28;1167;-64
2024/03/22 00:37:29;;;;;;;23.73;15.00;;;;;;;;;;689200;28;1135;-64
2024/03/22 00:37:49;;;;;;;24.27;14.73;;;;;;;;;;692713;28;1121;-64
2024/03/22 00:38:09;;;;;;;25.10;14.75;;;;;;;;;;694582;28;3677;-64
2024/03/22 00:38:30;;;;;;;25.13;15.10;;;;;;;;;;693675;28;1179;-65
2024/03/22 00:38:50;;;;;;;22.07;14.30;;;;;;;;;;695336;28;1165;-65
2024/03/22 00:39:10;;;;;;;22.58;14.27;;;;;;;;;;697753;28;983;-64
2024/03/22 00:39:30;;;;;;;22.77;14.27;;;;;;;;;;693178;28;1313;-64
2024/03/22 00:39:51;;;;;;;23.47;14.00;;;;;;;;;;693665;28;4530;-64
2024/03/22 00:40:11;;;;;;;23.77;13.90;;;;;;;;;;695395;28;952;-64
2024/03/22 00:40:31;;;;;;;26.88;14.05;;;;;;;;;;693666;28;1345;-64
2024/03/22 00:40:52;;;;;;;25.63;14.97;;;;;;;;;;694035;28;813;-64
2024/03/22 00:41:12;;;;;;;24.43;14.73;;;;;;;;;;693994;28;1211;-65
2024/03/22 00:41:33;;;;;;;23.42;13.82;;;;;;;;;;694168;28;882;-65
2024/03/22 00:41:54;;;;;;;22.47;13.93;;;;;;;;;;693590;28;884;-64
2024/03/22 00:42:14;;;;;;;25.00;15.23;;;;;;;;;;694872;28;1455;-65
2024/03/22 00:42:34;;;;;;;24.40;15.47;;;;;;;;;;693955;28;996;-64
2024/03/22 00:42:55;;;;;;;23.03;14.97;;;;;;;;;;693555;28;4430;-64
2024/03/22 00:43:15;;;;;;;22.73;14.05;;;;;;;;;;693821;28;1087;-64
2024/03/22 00:43:35;;;;;;;25.23;15.33;;;;;;;;;;693213;28;1077;-63
2024/03/22 00:43:55;;;;;;;25.67;14.90;;;;;;;;;;694774;28;1174;-65
2024/03/22 00:44:16;;;;;;;26.30;15.07;;;;;;;;;;693294;28;1223;-64
2024/03/22 00:44:36;;;;;;;26.57;15.43;;;;;;;;;;694921;28;950;-64
2024/03/22 00:44:57;;;;;;;25.08;15.10;;;;;;;;;;695219;28;1006;-64
2024/03/22 00:45:18;;;;;;;24.23;14.70;;;;;;;;;;694158;28;959;-64
2024/03/22 00:45:38;;;;;;;25.73;14.60;;;;;;;;;;694259;28;1172;-64
2024/03/22 00:45:58;;;;;;;23.37;14.23;;;;;;;;;;693811;28;4394;-65
2024/03/22 00:46:18;;;;;;;23.38;14.77;;;;;;;;;;694037;28;1297;-64
2024/03/22 00:46:39;;;;;;;24.90;14.73;;;;;;;;;;694055;28;943;-64
2024/03/22 00:46:59;;;;;;;27.90;15.00;;;;;;;;;;694627;28;1295;-64
2024/03/22 00:47:19;;;;;;;25.25;15.23;;;;;;;;;;694686;28;1271;-63
2024/03/22 00:47:39;;;;;;;24.00;14.50;;;;;;;;;;693798;28;1038;-64
2024/03/22 00:48:00;;;;;;;22.50;14.27;;;;;;;;;;694622;28;1188;-65
2024/03/22 00:48:20;;;;;;;24.70;14.70;;;;;;;;;;694242;28;930;-65
2024/03/22 00:48:40;;;;;;;24.93;14.70;;;;;;;;;;694030;28;1316;-64
2024/03/22 00:49:01;;;;;;;24.00;14.53;;;;;;;;;;693816;28;4436;-64
2024/03/22 00:49:21;;;;;;;25.17;14.50;;;;;;;;;;693537;28;943;-64
2024/03/22 00:49:42;;;;;;;26.05;14.75;;;;;;;;;;694028;28;915;-64
2024/03/22 00:50:02;;;;;;;24.08;14.73;;;;;;;;;;695087;28;1202;-66
2024/03/22 00:50:23;;;;;;;24.20;14.50;;;;;;;;;;695072;28;932;-64
2024/03/22 00:50:44;;;;;;;23.75;14.63;;;;;;;;;;694767;28;1200;-64
2024/03/22 00:51:04;;;;;;;22.52;14.57;;;;;;;;;;695226;28;955;-64
2024/03/22 00:51:25;;;;;;;24.45;14.48;;;;;;;;;;693365;28;961;-65
2024/03/22 00:51:47;;;;;;;27.90;14.90;;;;;;;;;;693422;28;1076;-64
2024/03/22 00:52:07;;;;;;;25.58;14.93;;;;;;;;;;692830;28;4596;-65
2024/03/22 00:52:28;;;;;;;24.80;14.80;;;;;;;;;;695254;28;1273;-64
2024/03/22 00:52:50;;;;;;;26.03;15.10;;;;;;;;;;694359;28;1333;-65
2024/03/22 00:53:11;;;;;;;24.83;14.85;;;;;;;;;;695566;28;864;-65
2024/03/22 00:53:31;;;;;;;25.30;14.98;;;;;;;;;;693520;28;1895;-65
2024/03/22 00:53:52;;;;;;;25.53;15.10;;;;;;;;;;694928;28;892;-63
2024/03/22 00:54:13;;;;;;;26.15;15.63;;;;;;;;;;693835;28;1221;-64
2024/03/22 00:54:33;;;;;;;24.40;15.50;;;;;;;;;;693940;28;1049;-64
2024/03/22 00:54:53;;;;;;;25.30;15.77;;;;;;;;;;693900;28;4512;-64
2024/03/22 00:55:14;;;;;;;28.20;15.83;;;;;;;;;;695209;28;781;-64
2024/03/22 00:55:35;;;;;;;25.55;15.30;;;;;;;;;;693390;28;1134;-65
2024/03/22 00:55:56;;;;;;;24.53;15.27;;;;;;;;;;694704;28;3577;-64
2024/03/22 00:56:16;;;;;;;25.42;15.48;;;;;;;;;;693530;28;4892;-64
2024/03/22 00:56:36;;;;;;;26.57;15.50;;;;;;;;;;693521;28;1445;-64
2024/03/22 00:56:57;;;;;;;24.73;14.97;;;;;;;;;;694827;28;944;-64
2024/03/22 00:57:17;;;;;;;25.73;15.63;;;;;;;;;;695128;28;1113;-65
2024/03/22 00:57:37;;;;;;;25.90;15.30;;;;;;;;;;693192;28;948;-65
2024/03/22 00:57:57;;;;;;;27.30;15.23;;;;;;;;;;694101;28;4328;-64
2024/03/22 00:58:18;;;;;;;25.73;15.20;;;;;;;;;;694202;28;1251;-65
2024/03/22 00:58:39;;;;;;;24.97;15.07;;;;;;;;;;693774;28;1688;-64
2024/03/22 00:58:59;;;;;;;26.67;15.18;;;;;;;;;;694072;28;951;-64
2024/03/22 00:59:19;;;;;;;23.73;14.97;;;;;;;;;;693234;28;1007;-67
2024/03/22 00:59:39;;;;;;;23.73;14.47;;;;;;;;;;693631;28;1856;-64
2024/03/22 01:00:00;;;;;;;23.75;14.68;;;;;;;;;;694349;28;1199;-64
2024/03/22 01:00:20;;;;;;;23.80;14.37;;;;;;;;;;693550;28;824;-64
2024/03/22 01:00:40;;;;;;;25.00;14.33;;;;;;;;;;691851;28;1916;-64
2024/03/22 01:01:00;;;;;;;24.83;14.77;;;;;;;;;;693802;28;4483;-64
2024/03/22 01:01:21;;;;;;;24.50;14.43;;;;;;;;;;695183;28;947;-65
2024/03/22 01:01:41;;;;;;;24.60;14.90;;;;;;;;;;693425;28;1727;-64
2024/03/22 01:02:01;;;;;;;24.87;15.70;;;;;;;;;;694065;28;802;-64
2024/03/22 01:02:22;;;;;;;24.83;15.02;;;;;;;;;;694204;28;809;-64
2024/03/22 01:02:42;;;;;;;23.15;14.63;;;;;;;;;;694011;28;2250;-64
2024/03/22 01:03:03;;;;;;;25.73;15.10;;;;;;;;;;694474;28;1345;-64
2024/03/22 01:03:23;;;;;;;24.97;15.17;;;;;;;;;;694341;28;901;-64
2024/03/22 01:03:43;;;;;;;24.15;14.65;;;;;;;;;;693524;28;2324;-65
2024/03/22 01:04:03;;;;;;;23.97;14.47;;;;;;;;;;693110;28;4412;-64
2024/03/22 01:04:24;;;;;;;23.00;14.43;;;;;;;;;;694369;28;1302;-64
2024/03/22 01:04:44;;;;;;;23.55;14.18;;;;;;;;;;693707;28;2513;-65
2024/03/22 01:05:04;;;;;;;23.67;14.13;;;;;;;;;;696577;28;1123;-64
2024/03/22 01:05:26;;;;;;;23.87;14.57;;;;;;;;;;696618;28;912;-65
2024/03/22 01:05:46;;;;;;;23.17;14.27;;;;;;;;;;693804;28;1899;-64
2024/03/22 01:06:07;;;;;;;25.27;15.20;;;;;;;;;;695212;28;1557;-65
2024/03/22 01:06:27;;;;;;;25.65;15.05;;;;;;;;;;693318;28;1218;-65
2024/03/22 01:06:48;;;;;;;24.60;15.32;;;;;;;;;;693439;28;995;-65
2024/03/22 01:07:09;;;;;;;25.50;15.27;;;;;;;;;;693104;28;4498;-65
2024/03/22 01:07:29;;;;;;;24.40;14.30;;;;;;;;;;694209;28;891;-64
2024/03/22 01:07:49;;;;;;;24.30;14.07;;;;;;;;;;693921;28;2404;-64
2024/03/22 01:08:09;;;;;;;23.70;14.50;;;;;;;;;;695488;28;1006;-65
2024/03/22 01:08:30;;;;;;;25.20;14.25;;;;;;;;;;695721;28;844;-64
2024/03/22 01:08:51;;;;;;;24.33;14.10;;;;;;;;;;692935;28;1736;-64
2024/03/22 01:09:11;;;;;;;24.40;14.52;;;;;;;;;;694692;28;952;-65
2024/03/22 01:09:32;;;;;;;22.60;14.20;;;;;;;;;;693103;28;1730;-65
2024/03/22 01:09:52;;;;;;;24.27;14.80;;;;;;;;;;693539;28;4532;-64
2024/03/22 01:10:12;;;;;;;24.75;15.35;;;;;;;;;;695715;28;753;-66
2024/03/22 01:10:33;;;;;;;23.63;14.40;;;;;;;;;;694671;28;1784;-64
2024/03/22 01:10:53;;;;;;;23.00;14.13;;;;;;;;;;695400;28;966;-64
2024/03/22 01:11:14;;;;;;;23.07;14.17;;;;;;;;;;694026;28;1277;-66
2024/03/22 01:11:34;;;;;;;22.97;14.40;;;;;;;;;;691560;28;2460;-64
2024/03/22 01:11:54;;;;;;;22.27;14.33;;;;;;;;;;693096;28;928;-64
2024/03/22 01:12:14;;;;;;;22.70;13.73;;;;;;;;;;693312;28;873;-64
2024/03/22 01:12:35;;;;;;;21.97;13.67;;;;;;;;;;692512;28;1147;-65
2024/03/22 01:12:55;;;;;;;23.98;14.57;;;;;;;;;;692098;28;4430;-64
2024/03/22 01:13:15;;;;;;;25.50;15.27;;;;;;;;;;694101;28;896;-64
2024/03/22 01:13:36;;;;;;;24.27;14.03;;;;;;;;;;692411;28;2339;-64
2024/03/22 01:13:56;;;;;;;26.98;14.63;;;;;;;;;;693168;28;900;-64
2024/03/22 01:14:16;;;;;;;25.80;14.80;;;;;;;;;;693880;28;1250;-64
2024/03/22 01:14:36;;;;;;;24.37;14.80;;;;;;;;;;694040;28;2492;-64
2024/03/22 01:14:57;;;;;;;24.53;14.77;;;;;;;;;;695499;28;1006;-64
2024/03/22 01:15:17;;;;;;;24.42;14.32;;;;;;;;;;696028;28;918;-65
2024/03/22 01:15:37;;;;;;;23.17;14.17;;;;;;;;;;694307;28;1428;-65
2024/03/22 01:15:57;;;;;;;21.63;13.90;;;;;;;;;;695096;28;4394;-64
2024/03/22 01:16:18;;;;;;;23.37;14.30;;;;;;;;;;695346;28;1330;-64
2024/03/22 01:16:39;;;;;;;21.93;13.43;;;;;;;;;;693039;28;1478;-64
2024/03/22 01:16:59;;;;;;;23.70;13.77;;;;;;;;;;694926;28;932;-65
2024/03/22 01:17:20;;;;;;;23.77;14.53;;;;;;;;;;695062;28;963;-64
2024/03/22 01:17:40;;;;;;;21.83;14.50;;;;;;;;;;693132;28;2603;-64
2024/03/22 01:18:00;;;;;;;22.90;14.35;;;;;;;;;;693981;28;1077;-64
2024/03/22 01:18:20;;;;;;;24.00;14.77;;;;;;;;;;694024;28;841;-64
2024/03/22 01:18:41;;;;;;;22.90;14.43;;;;;;;;;;697014;28;1827;-65
2024/03/22 01:19:01;;;;;;;22.30;13.87;;;;;;;;;;697116;28;4307;-65
2024/03/22 01:19:22;;;;;;;22.97;14.23;;;;;;;;;;696843;28;1417;-64
2024/03/22 01:19:43;;;;;;;24.45;14.20;;;;;;;;;;694216;28;1883;-64
2024/03/22 01:20:03;;;;;;;24.83;14.50;;;;;;;;;;693950;28;861;-65
2024/03/22 01:20:24;;;;;;;23.70;14.27;;;;;;;;;;695189;28;876;-64
2024/03/22 01:20:44;;;;;;;23.77;14.30;;;;;;;;;;693951;28;2328;-65
2024/03/22 01:21:05;;;;;;;21.63;13.73;;;;;;;;;;694302;28;903;-64
2024/03/22 01:21:25;;;;;;;22.17;13.88;;;;;;;;;;695413;28;1251;-64
2024/03/22 01:21:45;;;;;;;22.50;14.20;;;;;;;;;;694862;28;1749;-64
2024/03/22 01:22:06;;;;;;;23.58;14.32;;;;;;;;;;682896;28;4563;-65
2024/03/22 01:22:26;;;;;;;23.43;14.37;;;;;;;;;;692948;28;1215;-64
2024/03/22 01:22:47;;;;;;;23.85;14.50;;;;;;;;;;691878;28;2339;-64
2024/03/22 01:23:07;;;;;;;24.17;14.30;;;;;;;;;;690076;28;1135;-64
2024/03/22 01:23:27;;;;;;;22.80;14.03;;;;;;;;;;689946;28;841;-66
2024/03/22 01:23:47;;;;;;;26.17;14.68;;;;;;;;;;689459;28;2769;-64
2024/03/22 01:24:08;;;;;;;24.30;14.33;;;;;;;;;;694409;28;1108;-64
2024/03/22 01:24:28;;;;;;;22.43;13.10;;;;;;;;;;695057;28;821;-64
2024/03/22 01:24:48;;;;;;;23.73;13.90;;;;;;;;;;693031;28;4413;-65
2024/03/22 01:25:09;;;;;;;22.17;13.77;;;;;;;;;;695098;28;959;-64
2024/03/22 01:25:30;;;;;;;22.65;13.43;;;;;;;;;;693596;28;1341;-65
2024/03/22 01:25:50;;;;;;;22.60;13.90;;;;;;;;;;692630;28;1837;-64
2024/03/22 01:26:10;;;;;;;22.87;14.23;;;;;;;;;;694160;28;824;-64
2024/03/22 01:26:31;;;;;;;23.17;14.00;;;;;;;;;;695423;28;1276;-65
2024/03/22 01:26:51;;;;;;;23.27;14.30;;;;;;;;;;694202;28;2356;-64
2024/03/22 01:27:11;;;;;;;24.33;13.98;;;;;;;;;;695064;28;1274;-65
2024/03/22 01:27:32;;;;;;;23.93;14.67;;;;;;;;;;693109;28;780;-64
2024/03/22 01:27:52;;;;;;;22.70;13.80;;;;;;;;;;694223;28;4497;-63
2024/03/22 01:28:12;;;;;;;22.27;13.57;;;;;;;;;;695532;28;1173;-64
2024/03/22 01:28:32;;;;;;;22.80;14.23;;;;;;;;;;695857;28;805;-64
2024/03/22 01:28:53;;;;;;;21.27;13.48;;;;;;;;;;694208;28;1767;-64
2024/03/22 01:29:13;;;;;;;21.53;13.40;;;;;;;;;;695673;28;737;-64
2024/03/22 01:29:34;;;;;;;20.70;12.93;;;;;;;;;;694346;28;1762;-65
2024/03/22 01:29:54;;;;;;;21.60;13.70;;;;;;;;;;694419;28;1426;-64
2024/03/22 01:30:14;;;;;;;21.43;13.57;;;;;;;;;;694598;28;927;-64
2024/03/22 01:30:36;;;;;;;21.77;13.50;;;;;;;;;;693002;28;2284;-64
2024/03/22 01:30:56;;;;;;;21.60;13.95;;;;;;;;;;693426;28;4347;-64
2024/03/22 01:31:17;;;;;;;22.60;13.83;;;;;;;;;;693500;28;734;-65
2024/03/22 01:31:37;;;;;;;20.90;13.47;;;;;;;;;;693434;28;2606;-65
2024/03/22 01:31:58;;;;;;;20.73;13.23;;;;;;;;;;695122;28;1266;-64
2024/03/22 01:32:18;;;;;;;20.27;13.40;;;;;;;;;;693730;28;827;-65
2024/03/22 01:32:38;;;;;;;22.50;13.73;;;;;;;;;;693055;28;1862;-64
2024/03/22 01:32:58;;;;;;;22.88;13.95;;;;;;;;;;694279;28;943;-64
2024/03/22 01:33:19;;;;;;;22.10;13.90;;;;;;;;;;694787;28;1423;-66
2024/03/22 01:33:39;;;;;;;23.10;14.37;;;;;;;;;;693870;28;1967;-64
2024/03/22 01:33:59;;;;;;;21.75;13.73;;;;;;;;;;694415;28;4344;-66
2024/03/22 01:34:19;;;;;;;21.63;13.70;;;;;;;;;;695021;28;6282;-64
2024/03/22 01:34:40;;;;;;;23.53;13.70;;;;;;;;;;694540;28;1054;-64
2024/03/22 01:35:00;;;;;;;22.35;13.30;;;;;;;;;;695647;28;1383;-64
2024/03/22 01:35:20;;;;;;;20.83;13.30;;;;;;;;;;694781;28;1338;-64
2024/03/22 01:35:40;;;;;;;21.83;13.60;;;;;;;;;;694386;28;2594;-64
2024/03/22 01:36:01;;;;;;;22.00;13.63;;;;;;;;;;695431;28;931;-64
2024/03/22 01:36:21;;;;;;;20.67;13.10;;;;;;;;;;694539;28;812;-64
2024/03/22 01:36:41;;;;;;;21.73;13.30;;;;;;;;;;694583;28;1765;-65
2024/03/22 01:37:02;;;;;;;22.20;13.33;;;;;;;;;;694068;28;4419;-64
2024/03/22 01:37:23;;;;;;;21.70;13.75;;;;;;;;;;693722;28;947;-64
2024/03/22 01:37:43;;;;;;;21.53;13.97;;;;;;;;;;692895;28;2156;-68
2024/03/22 01:38:03;;;;;;;21.93;13.53;;;;;;;;;;695664;28;907;-65
2024/03/22 01:38:24;;;;;;;22.80;13.30;;;;;;;;;;697823;28;884;-64
2024/03/22 01:38:44;;;;;;;21.83;13.00;;;;;;;;;;696524;28;1286;-64
2024/03/22 01:39:04;;;;;;;22.83;13.80;;;;;;;;;;695450;28;1280;-64
2024/03/22 01:39:24;;;;;;;21.25;13.32;;;;;;;;;;693967;28;889;-65
2024/03/22 01:39:45;;;;;;;20.93;13.53;;;;;;;;;;693890;28;2469;-64
2024/03/22 01:40:05;;;;;;;21.63;13.30;;;;;;;;;;693236;28;4280;-64
2024/03/22 01:40:26;;;;;;;20.35;12.75;;;;;;;;;;695189;28;1214;-64
2024/03/22 01:40:46;;;;;;;21.13;13.25;;;;;;;;;;694551;28;1761;-64
2024/03/22 01:41:07;;;;;;;22.43;14.30;;;;;;;;;;694040;28;859;-64
2024/03/22 01:41:27;;;;;;;21.23;13.43;;;;;;;;;;695014;28;963;-64
2024/03/22 01:41:48;;;;;;;22.90;13.65;;;;;;;;;;692993;28;1128;-65
2024/03/22 01:42:08;;;;;;;23.42;14.25;;;;;;;;;;694120;28;1268;-64
2024/03/22 01:42:28;;;;;;;21.73;13.60;;;;;;;;;;694615;28;797;-65
2024/03/22 01:42:52;;;;;;;21.63;13.70;;;;;;;;;;693288;28;4394;-65
2024/03/22 01:43:12;;;;;;;21.90;13.35;;;;;;;;;;693565;28;840;-64
2024/03/22 01:43:32;;;;;;;21.03;13.43;;;;;;;;;;695053;28;1294;-64
2024/03/22 01:43:53;;;;;;;21.83;13.30;;;;;;;;;;694726;28;1219;-64
2024/03/22 01:44:13;;;;;;;20.40;13.00;;;;;;;;;;694791;28;908;-64
2024/03/22 01:44:34;;;;;;;22.48;13.15;;;;;;;;;;694556;28;1001;-64
2024/03/22 01:44:54;;;;;;;21.60;12.97;;;;;;;;;;694515;28;2505;-65
2024/03/22 01:45:15;;;;;;;21.00;13.33;;;;;;;;;;694256;28;1325;-64
2024/03/22 01:45:36;;;;;;;21.25;12.98;;;;;;;;;;694626;28;2612;-63
2024/03/22 01:45:57;;;;;;;21.20;13.27;;;;;;;;;;694959;28;4490;-66
2024/03/22 01:46:17;;;;;;;21.33;12.53;;;;;;;;;;694471;28;923;-65
2024/03/22 01:46:38;;;;;;;22.20;13.10;;;;;;;;;;694349;28;1791;-65
2024/03/22 01:46:59;;;;;;;21.80;13.20;;;;;;;;;;695730;28;796;-63
2024/03/22 01:47:19;;;;;;;21.20;13.18;;;;;;;;;;694639;28;1317;-66
2024/03/22 01:47:40;;;;;;;21.47;12.63;;;;;;;;;;693702;28;2315;-65
2024/03/22 01:48:00;;;;;;;22.23;12.90;;;;;;;;;;694084;28;1340;-65
2024/03/22 01:48:20;;;;;;;20.75;13.10;;;;;;;;;;693675;28;924;-64
2024/03/22 01:48:41;;;;;;;22.37;13.27;;;;;;;;;;693875;28;2665;-64
2024/03/22 01:49:01;;;;;;;21.07;13.50;;;;;;;;;;694932;28;4411;-64
2024/03/22 01:49:22;;;;;;;21.70;12.50;;;;;;;;;;694398;28;956;-66
2024/03/22 01:49:43;;;;;;;21.83;12.57;;;;;;;;;;693809;28;1187;-65
2024/03/22 01:50:03;;;;;;;20.25;12.60;;;;;;;;;;694935;28;800;-65
2024/03/22 01:50:24;;;;;;;19.77;12.83;;;;;;;;;;694022;28;832;-65
2024/03/22 01:50:44;;;;;;;20.25;12.45;;;;;;;;;;694549;28;1823;-64
2024/03/22 01:51:05;;;;;;;22.13;13.53;;;;;;;;;;695347;28;854;-64
2024/03/22 01:51:25;;;;;;;21.58;12.88;;;;;;;;;;688899;28;1299;-63
2024/03/22 01:51:45;;;;;;;20.33;12.73;;;;;;;;;;689165;28;2128;-63
2024/03/22 01:52:06;;;;;;;19.05;12.00;;;;;;;;;;688086;28;4246;-63
2024/03/22 01:52:26;;;;;;;20.43;12.40;;;;;;;;;;691680;28;3745;-64
2024/03/22 01:52:46;;;;;;;21.20;12.40;;;;;;;;;;688678;28;2387;-64
2024/03/22 01:53:07;;;;;;;20.55;12.50;;;;;;;;;;689838;28;1410;-64
2024/03/22 01:53:27;;;;;;;19.70;12.50;;;;;;;;;;695464;28;1968;-64
2024/03/22 01:53:47;;;;;;;19.03;12.40;;;;;;;;;;694274;28;1751;-63
2024/03/22 01:54:10;;;;;;;19.95;12.80;;;;;;;;;;694636;28;1382;-63
2024/03/22 01:54:31;;;;;;;20.27;12.45;;;;;;;;;;695026;28;1251;-63
2024/03/22 01:54:51;;;;;;;21.07;12.73;;;;;;;;;;695312;28;4610;-64
2024/03/22 01:55:11;;;;;;;21.23;12.63;;;;;;;;;;696894;28;919;-64
2024/03/22 01:55:32;;;;;;;19.27;12.37;;;;;;;;;;697889;28;862;-65
2024/03/22 01:55:52;;;;;;;19.77;12.60;;;;;;;;;;694654;28;1438;-64
2024/03/22 01:56:12;;;;;;;20.83;12.80;;;;;;;;;;692929;28;1196;-64
2024/03/22 01:56:33;;;;;;;21.20;13.43;;;;;;;;;;693299;28;865;-64
2024/03/22 01:56:53;;;;;;;20.40;13.10;;;;;;;;;;691704;28;2117;-63
2024/03/22 01:57:14;;;;;;;21.20;13.23;;;;;;;;;;693669;28;896;-65
2024/03/22 01:57:34;;;;;;;20.55;13.35;;;;;;;;;;693375;28;1305;-64
2024/03/22 01:57:55;;;;;;;19.43;12.13;;;;;;;;;;692951;28;4368;-64
2024/03/22 01:58:17;;;;;;;21.10;12.43;;;;;;;;;;695789;28;1583;-64
2024/03/22 01:58:37;;;;;;;20.23;11.90;;;;;;;;;;694811;28;2600;-64
2024/03/22 01:58:58;;;;;;;20.00;12.23;;;;;;;;;;696104;28;817;-64
2024/03/22 01:59:18;;;;;;;20.42;12.43;;;;;;;;;;696001;28;1258;-64
2024/03/22 01:59:39;;;;;;;21.13;12.55;;;;;;;;;;694937;28;2331;-64
2024/03/22 01:59:59;;;;;;;20.40;12.67;;;;;;;;;;696638;28;915;-64
2024/03/22 02:00:20;;;;;;;19.08;12.45;;;;;;;;;;697389;28;790;-64
2024/03/22 02:00:40;;;;;;;20.43;12.63;;;;;;;;;;696253;28;2297;-64
2024/03/22 02:01:31;;;;;;;19.60;12.43;;;;;;;;;;787587;22;2204;-66
2024/03/22 02:01:51;;;;;;;18.35;12.10;;;;;;;;;;693888;28;1705;-65
2024/03/22 02:02:12;;;;;;;19.45;12.00;;;;;;;;;;695914;28;1271;-63
2024/03/22 02:02:32;;;;;;;20.50;12.20;;;;;;;;;;695368;28;947;-62
2024/03/22 02:02:53;;;;;;;20.03;12.30;;;;;;;;;;693626;28;2787;-63
2024/03/22 02:03:13;;;;;;;20.50;12.50;;;;;;;;;;696183;28;1259;-63
2024/03/22 02:03:33;;;;;;;19.70;12.40;;;;;;;;;;696348;28;930;-63